sensor_id;sensor_type;location;lat;lon;timestamp;P1;durP1;ratioP1;P2;durP2;ratioP2
69594;SDS011;56800;52.142;5.364;2022-11-15T00:00:55;39.63;;;18.17;;
69594;SDS011;56800;52.142;5.364;2022-11-15T00:03:23;49.92;;;18.65;;
69594;SDS011;56800;52.142;5.364;2022-11-15T00:05:51;39.20;;;19.25;;
69594;SDS011;56800;52.142;5.364;2022-11-15T00:08:18;44.88;;;18.73;;
69594;SDS011;56800;52.142;5.364;2022-11-15T00:10:58;42.25;;;18.65;;
69594;SDS011;56800;52.142;5.364;2022-11-15T00:13:26;48.97;;;20.07;;
69594;SDS011;56800;52.142;5.364;2022-11-15T00:15:58;49.28;;;18.85;;
69594;SDS011;56800;52.142;5.364;2022-11-15T00:18:25;43.00;;;18.77;;
69594;SDS011;56800;52.142;5.364;2022-11-15T00:20:52;44.50;;;18.58;;
69594;SDS011;56800;52.142;5.364;2022-11-15T00:23:19;55.35;;;19.35;;
69594;SDS011;56800;52.142;5.364;2022-11-15T00:25:45;54.27;;;19.67;;
69594;SDS011;56800;52.142;5.364;2022-11-15T00:28:12;52.28;;;20.88;;
69594;SDS011;56800;52.142;5.364;2022-11-15T00:30:38;51.20;;;19.73;;
69594;SDS011;56800;52.142;5.364;2022-11-15T00:33:05;54.40;;;19.95;;
69594;SDS011;56800;52.142;5.364;2022-11-15T00:35:32;56.30;;;20.20;;
69594;SDS011;56800;52.142;5.364;2022-11-15T00:38:00;62.63;;;21.27;;
69594;SDS011;56800;52.142;5.364;2022-11-15T00:40:27;52.45;;;19.38;;
69594;SDS011;56800;52.142;5.364;2022-11-15T00:42:54;59.03;;;20.77;;
69594;SDS011;56800;52.142;5.364;2022-11-15T00:45:21;56.13;;;20.50;;
69594;SDS011;56800;52.142;5.364;2022-11-15T00:47:48;81.95;;;21.98;;
69594;SDS011;56800;52.142;5.364;2022-11-15T00:50:15;65.10;;;22.07;;
69594;SDS011;56800;52.142;5.364;2022-11-15T00:52:41;76.00;;;20.70;;
69594;SDS011;56800;52.142;5.364;2022-11-15T00:55:17;55.88;;;21.85;;
69594;SDS011;56800;52.142;5.364;2022-11-15T00:57:45;83.50;;;23.00;;
69594;SDS011;56800;52.142;5.364;2022-11-15T01:00:12;84.22;;;22.48;;
69594;SDS011;56800;52.142;5.364;2022-11-15T01:02:39;89.97;;;21.60;;
69594;SDS011;56800;52.142;5.364;2022-11-15T01:05:06;110.55;;;23.52;;
69594;SDS011;56800;52.142;5.364;2022-11-15T01:07:34;99.00;;;23.52;;
69594;SDS011;56800;52.142;5.364;2022-11-15T01:10:00;65.05;;;22.60;;
69594;SDS011;56800;52.142;5.364;2022-11-15T01:12:27;71.35;;;23.23;;
69594;SDS011;56800;52.142;5.364;2022-11-15T01:14:54;87.50;;;24.60;;
69594;SDS011;56800;52.142;5.364;2022-11-15T01:17:20;71.25;;;23.33;;
69594;SDS011;56800;52.142;5.364;2022-11-15T01:19:47;60.50;;;22.45;;
69594;SDS011;56800;52.142;5.364;2022-11-15T01:22:13;58.47;;;22.02;;
69594;SDS011;56800;52.142;5.364;2022-11-15T01:24:40;69.38;;;24.73;;
69594;SDS011;56800;52.142;5.364;2022-11-15T01:27:07;69.97;;;23.33;;
69594;SDS011;56800;52.142;5.364;2022-11-15T01:29:34;59.40;;;22.08;;
69594;SDS011;56800;52.142;5.364;2022-11-15T01:32:00;84.22;;;22.98;;
69594;SDS011;56800;52.142;5.364;2022-11-15T01:34:27;64.18;;;22.40;;
69594;SDS011;56800;52.142;5.364;2022-11-15T01:36:54;64.40;;;22.33;;
69594;SDS011;56800;52.142;5.364;2022-11-15T01:39:20;111.20;;;25.30;;
69594;SDS011;56800;52.142;5.364;2022-11-15T01:41:47;75.70;;;22.73;;
69594;SDS011;56800;52.142;5.364;2022-11-15T01:47:00;70.00;;;23.25;;
69594;SDS011;56800;52.142;5.364;2022-11-15T01:49:30;82.07;;;24.33;;
69594;SDS011;56800;52.142;5.364;2022-11-15T01:52:00;71.50;;;24.60;;
69594;SDS011;56800;52.142;5.364;2022-11-15T01:54:29;69.95;;;24.15;;
69594;SDS011;56800;52.142;5.364;2022-11-15T01:56:58;71.15;;;23.77;;
69594;SDS011;56800;52.142;5.364;2022-11-15T01:59:28;57.28;;;24.08;;
69594;SDS011;56800;52.142;5.364;2022-11-15T02:01:55;80.95;;;23.65;;
69594;SDS011;56800;52.142;5.364;2022-11-15T02:04:24;64.90;;;24.90;;
69594;SDS011;56800;52.142;5.364;2022-11-15T02:06:52;69.80;;;24.48;;
69594;SDS011;56800;52.142;5.364;2022-11-15T02:09:20;80.70;;;25.40;;
69594;SDS011;56800;52.142;5.364;2022-11-15T02:11:46;68.47;;;24.23;;
69594;SDS011;56800;52.142;5.364;2022-11-15T02:14:17;69.13;;;25.48;;
69594;SDS011;56800;52.142;5.364;2022-11-15T02:22:45;74.78;;;24.55;;
69594;SDS011;56800;52.142;5.364;2022-11-15T02:28:16;64.72;;;24.73;;
69594;SDS011;56800;52.142;5.364;2022-11-15T02:33:50;67.90;;;24.13;;
69594;SDS011;56800;52.142;5.364;2022-11-15T02:42:35;64.55;;;25.38;;
69594;SDS011;56800;52.142;5.364;2022-11-15T02:45:06;62.33;;;25.10;;
69594;SDS011;56800;52.142;5.364;2022-11-15T02:47:37;68.10;;;25.02;;
69594;SDS011;56800;52.142;5.364;2022-11-15T02:50:11;74.88;;;25.75;;
69594;SDS011;56800;52.142;5.364;2022-11-15T02:52:39;66.57;;;25.70;;
69594;SDS011;56800;52.142;5.364;2022-11-15T02:55:25;68.43;;;25.75;;
69594;SDS011;56800;52.142;5.364;2022-11-15T02:57:52;63.00;;;24.67;;
69594;SDS011;56800;52.142;5.364;2022-11-15T03:00:24;81.60;;;27.17;;
69594;SDS011;56800;52.142;5.364;2022-11-15T03:05:44;73.57;;;26.23;;
69594;SDS011;56800;52.142;5.364;2022-11-15T03:08:30;87.90;;;27.83;;
69594;SDS011;56800;52.142;5.364;2022-11-15T03:11:10;71.67;;;26.40;;
69594;SDS011;56800;52.142;5.364;2022-11-15T03:13:42;65.45;;;25.90;;
69594;SDS011;56800;52.142;5.364;2022-11-15T03:16:30;65.97;;;25.70;;
69594;SDS011;56800;52.142;5.364;2022-11-15T03:21:49;67.25;;;26.10;;
69594;SDS011;56800;52.142;5.364;2022-11-15T03:24:18;70.97;;;25.67;;
69594;SDS011;56800;52.142;5.364;2022-11-15T03:26:51;59.42;;;24.08;;
69594;SDS011;56800;52.142;5.364;2022-11-15T03:29:22;70.40;;;26.45;;
69594;SDS011;56800;52.142;5.364;2022-11-15T03:32:03;69.25;;;25.38;;
69594;SDS011;56800;52.142;5.364;2022-11-15T03:34:44;69.32;;;25.67;;
69594;SDS011;56800;52.142;5.364;2022-11-15T03:40:35;59.25;;;23.25;;
69594;SDS011;56800;52.142;5.364;2022-11-15T03:43:10;65.40;;;24.98;;
69594;SDS011;56800;52.142;5.364;2022-11-15T03:45:56;69.53;;;24.45;;
69594;SDS011;56800;52.142;5.364;2022-11-15T03:48:30;63.60;;;24.55;;
69594;SDS011;56800;52.142;5.364;2022-11-15T03:50:59;65.80;;;25.17;;
69594;SDS011;56800;52.142;5.364;2022-11-15T03:53:26;57.55;;;24.90;;
69594;SDS011;56800;52.142;5.364;2022-11-15T03:55:54;68.18;;;25.88;;
69594;SDS011;56800;52.142;5.364;2022-11-15T03:58:21;68.00;;;24.70;;
69594;SDS011;56800;52.142;5.364;2022-11-15T04:00:48;63.67;;;24.80;;
69594;SDS011;56800;52.142;5.364;2022-11-15T04:03:14;50.13;;;23.93;;
69594;SDS011;56800;52.142;5.364;2022-11-15T04:05:41;59.38;;;24.42;;
69594;SDS011;56800;52.142;5.364;2022-11-15T04:08:08;64.22;;;24.38;;
69594;SDS011;56800;52.142;5.364;2022-11-15T04:10:34;56.28;;;23.08;;
69594;SDS011;56800;52.142;5.364;2022-11-15T04:13:01;52.15;;;23.58;;
69594;SDS011;56800;52.142;5.364;2022-11-15T04:15:28;56.17;;;23.57;;
69594;SDS011;56800;52.142;5.364;2022-11-15T04:17:56;49.92;;;22.95;;
69594;SDS011;56800;52.142;5.364;2022-11-15T04:20:24;52.67;;;24.48;;
69594;SDS011;56800;52.142;5.364;2022-11-15T04:23:12;56.63;;;23.85;;
69594;SDS011;56800;52.142;5.364;2022-11-15T04:26:04;57.30;;;23.77;;
69594;SDS011;56800;52.142;5.364;2022-11-15T04:28:36;48.00;;;23.33;;
69594;SDS011;56800;52.142;5.364;2022-11-15T04:31:26;45.22;;;21.05;;
69594;SDS011;56800;52.142;5.364;2022-11-15T04:33:53;45.05;;;22.33;;
69594;SDS011;56800;52.142;5.364;2022-11-15T04:36:20;45.13;;;20.77;;
69594;SDS011;56800;52.142;5.364;2022-11-15T04:39:05;45.08;;;22.38;;
69594;SDS011;56800;52.142;5.364;2022-11-15T04:41:33;48.60;;;22.43;;
69594;SDS011;56800;52.142;5.364;2022-11-15T04:43:59;43.88;;;21.17;;
69594;SDS011;56800;52.142;5.364;2022-11-15T04:46:26;50.15;;;23.33;;
69594;SDS011;56800;52.142;5.364;2022-11-15T04:48:53;45.75;;;22.17;;
69594;SDS011;56800;52.142;5.364;2022-11-15T04:51:24;43.88;;;22.83;;
69594;SDS011;56800;52.142;5.364;2022-11-15T04:53:50;48.87;;;22.47;;
69594;SDS011;56800;52.142;5.364;2022-11-15T04:56:17;44.78;;;22.23;;
69594;SDS011;56800;52.142;5.364;2022-11-15T04:58:44;47.13;;;21.55;;
69594;SDS011;56800;52.142;5.364;2022-11-15T05:01:11;49.80;;;21.00;;
69594;SDS011;56800;52.142;5.364;2022-11-15T05:03:43;39.80;;;20.77;;
69594;SDS011;56800;52.142;5.364;2022-11-15T05:06:29;40.77;;;19.93;;
69594;SDS011;56800;52.142;5.364;2022-11-15T05:08:56;40.95;;;20.77;;
69594;SDS011;56800;52.142;5.364;2022-11-15T05:11:23;39.83;;;20.23;;
69594;SDS011;56800;52.142;5.364;2022-11-15T05:13:50;39.97;;;20.70;;
69594;SDS011;56800;52.142;5.364;2022-11-15T05:16:16;41.08;;;19.42;;
69594;SDS011;56800;52.142;5.364;2022-11-15T05:18:43;38.73;;;20.27;;
69594;SDS011;56800;52.142;5.364;2022-11-15T05:21:11;43.35;;;19.90;;
69594;SDS011;56800;52.142;5.364;2022-11-15T05:23:40;41.90;;;20.33;;
69594;SDS011;56800;52.142;5.364;2022-11-15T05:26:07;42.30;;;19.90;;
69594;SDS011;56800;52.142;5.364;2022-11-15T05:28:35;40.60;;;20.67;;
69594;SDS011;56800;52.142;5.364;2022-11-15T05:33:30;37.75;;;20.42;;
69594;SDS011;56800;52.142;5.364;2022-11-15T05:36:05;37.35;;;19.23;;
69594;SDS011;56800;52.142;5.364;2022-11-15T05:38:38;37.60;;;18.60;;
69594;SDS011;56800;52.142;5.364;2022-11-15T05:41:05;36.88;;;19.83;;
69594;SDS011;56800;52.142;5.364;2022-11-15T05:43:32;35.40;;;19.67;;
69594;SDS011;56800;52.142;5.364;2022-11-15T05:46:02;41.15;;;20.33;;
69594;SDS011;56800;52.142;5.364;2022-11-15T05:48:31;36.70;;;19.35;;
69594;SDS011;56800;52.142;5.364;2022-11-15T05:51:00;32.50;;;18.60;;
69594;SDS011;56800;52.142;5.364;2022-11-15T05:53:29;35.92;;;19.30;;
69594;SDS011;56800;52.142;5.364;2022-11-15T05:55:56;39.13;;;20.27;;
69594;SDS011;56800;52.142;5.364;2022-11-15T05:58:23;39.60;;;20.05;;
69594;SDS011;56800;52.142;5.364;2022-11-15T06:00:50;38.90;;;20.27;;
69594;SDS011;56800;52.142;5.364;2022-11-15T06:03:16;28.63;;;18.05;;
69594;SDS011;56800;52.142;5.364;2022-11-15T06:05:43;32.95;;;18.60;;
69594;SDS011;56800;52.142;5.364;2022-11-15T06:08:09;34.67;;;18.67;;
69594;SDS011;56800;52.142;5.364;2022-11-15T06:10:36;41.55;;;20.17;;
69594;SDS011;56800;52.142;5.364;2022-11-15T06:13:03;39.65;;;19.88;;
69594;SDS011;56800;52.142;5.364;2022-11-15T06:15:34;40.50;;;19.23;;
69594;SDS011;56800;52.142;5.364;2022-11-15T06:18:01;35.72;;;20.42;;
69594;SDS011;56800;52.142;5.364;2022-11-15T06:20:28;39.50;;;20.63;;
69594;SDS011;56800;52.142;5.364;2022-11-15T06:23:02;40.67;;;20.40;;
69594;SDS011;56800;52.142;5.364;2022-11-15T06:25:30;36.45;;;20.77;;
69594;SDS011;56800;52.142;5.364;2022-11-15T06:27:58;42.70;;;20.45;;
69594;SDS011;56800;52.142;5.364;2022-11-15T06:30:26;33.30;;;19.58;;
69594;SDS011;56800;52.142;5.364;2022-11-15T06:33:00;37.30;;;21.77;;
69594;SDS011;56800;52.142;5.364;2022-11-15T06:35:28;41.17;;;21.05;;
69594;SDS011;56800;52.142;5.364;2022-11-15T06:37:55;42.25;;;21.38;;
69594;SDS011;56800;52.142;5.364;2022-11-15T06:40:27;35.17;;;20.25;;
69594;SDS011;56800;52.142;5.364;2022-11-15T06:42:57;34.72;;;20.33;;
69594;SDS011;56800;52.142;5.364;2022-11-15T06:45:25;41.77;;;19.40;;
69594;SDS011;56800;52.142;5.364;2022-11-15T06:47:52;34.42;;;19.88;;
69594;SDS011;56800;52.142;5.364;2022-11-15T06:50:19;38.42;;;20.77;;
69594;SDS011;56800;52.142;5.364;2022-11-15T06:52:46;34.95;;;20.17;;
69594;SDS011;56800;52.142;5.364;2022-11-15T06:55:12;36.35;;;20.67;;
69594;SDS011;56800;52.142;5.364;2022-11-15T06:57:51;37.07;;;20.43;;
69594;SDS011;56800;52.142;5.364;2022-11-15T07:00:19;40.95;;;21.00;;
69594;SDS011;56800;52.142;5.364;2022-11-15T07:02:46;36.60;;;19.60;;
69594;SDS011;56800;52.142;5.364;2022-11-15T07:05:13;33.20;;;19.95;;
69594;SDS011;56800;52.142;5.364;2022-11-15T07:07:40;34.85;;;20.00;;
69594;SDS011;56800;52.142;5.364;2022-11-15T07:10:07;35.33;;;19.30;;
69594;SDS011;56800;52.142;5.364;2022-11-15T07:12:34;40.92;;;19.35;;
69594;SDS011;56800;52.142;5.364;2022-11-15T07:15:01;33.53;;;19.17;;
69594;SDS011;56800;52.142;5.364;2022-11-15T07:17:28;37.47;;;19.45;;
69594;SDS011;56800;52.142;5.364;2022-11-15T07:19:54;36.47;;;20.45;;
69594;SDS011;56800;52.142;5.364;2022-11-15T07:22:21;32.90;;;18.90;;
69594;SDS011;56800;52.142;5.364;2022-11-15T07:24:47;37.63;;;19.60;;
69594;SDS011;56800;52.142;5.364;2022-11-15T07:27:14;37.17;;;20.38;;
69594;SDS011;56800;52.142;5.364;2022-11-15T07:29:41;43.15;;;20.35;;
69594;SDS011;56800;52.142;5.364;2022-11-15T07:32:07;35.33;;;18.98;;
69594;SDS011;56800;52.142;5.364;2022-11-15T07:34:35;37.60;;;20.00;;
69594;SDS011;56800;52.142;5.364;2022-11-15T07:37:02;32.45;;;17.55;;
69594;SDS011;56800;52.142;5.364;2022-11-15T07:39:28;38.28;;;18.27;;
69594;SDS011;56800;52.142;5.364;2022-11-15T07:41:55;35.65;;;19.45;;
69594;SDS011;56800;52.142;5.364;2022-11-15T07:44:41;35.00;;;17.08;;
69594;SDS011;56800;52.142;5.364;2022-11-15T07:47:08;32.07;;;18.07;;
69594;SDS011;56800;52.142;5.364;2022-11-15T07:49:35;33.05;;;17.63;;
69594;SDS011;56800;52.142;5.364;2022-11-15T07:52:01;31.65;;;17.38;;
69594;SDS011;56800;52.142;5.364;2022-11-15T07:54:28;33.95;;;18.30;;
69594;SDS011;56800;52.142;5.364;2022-11-15T07:56:54;35.83;;;17.73;;
69594;SDS011;56800;52.142;5.364;2022-11-15T07:59:21;28.07;;;16.60;;
69594;SDS011;56800;52.142;5.364;2022-11-15T08:01:48;29.88;;;16.65;;
69594;SDS011;56800;52.142;5.364;2022-11-15T08:04:14;30.30;;;16.63;;
69594;SDS011;56800;52.142;5.364;2022-11-15T08:06:41;28.17;;;16.65;;
69594;SDS011;56800;52.142;5.364;2022-11-15T08:09:08;35.45;;;16.20;;
69594;SDS011;56800;52.142;5.364;2022-11-15T08:11:34;29.40;;;15.90;;
69594;SDS011;56800;52.142;5.364;2022-11-15T08:14:01;32.88;;;16.80;;
69594;SDS011;56800;52.142;5.364;2022-11-15T08:16:28;29.02;;;17.20;;
69594;SDS011;56800;52.142;5.364;2022-11-15T08:18:54;30.25;;;15.85;;
69594;SDS011;56800;52.142;5.364;2022-11-15T08:21:21;30.77;;;16.48;;
69594;SDS011;56800;52.142;5.364;2022-11-15T08:23:48;28.93;;;15.93;;
69594;SDS011;56800;52.142;5.364;2022-11-15T08:26:14;28.80;;;16.42;;
69594;SDS011;56800;52.142;5.364;2022-11-15T08:28:41;30.50;;;15.88;;
69594;SDS011;56800;52.142;5.364;2022-11-15T08:31:15;34.85;;;16.77;;
69594;SDS011;56800;52.142;5.364;2022-11-15T08:33:43;26.73;;;15.48;;
69594;SDS011;56800;52.142;5.364;2022-11-15T08:36:15;27.40;;;15.50;;
69594;SDS011;56800;52.142;5.364;2022-11-15T08:38:42;23.67;;;14.80;;
69594;SDS011;56800;52.142;5.364;2022-11-15T08:41:10;31.05;;;15.23;;
69594;SDS011;56800;52.142;5.364;2022-11-15T08:43:42;31.85;;;14.73;;
69594;SDS011;56800;52.142;5.364;2022-11-15T08:46:11;24.88;;;15.02;;
69594;SDS011;56800;52.142;5.364;2022-11-15T08:48:39;26.87;;;14.37;;
69594;SDS011;56800;52.142;5.364;2022-11-15T08:51:06;26.52;;;13.98;;
69594;SDS011;56800;52.142;5.364;2022-11-15T08:53:33;26.65;;;14.43;;
69594;SDS011;56800;52.142;5.364;2022-11-15T08:56:00;26.48;;;15.02;;
69594;SDS011;56800;52.142;5.364;2022-11-15T08:58:27;26.55;;;13.63;;
69594;SDS011;56800;52.142;5.364;2022-11-15T09:00:55;21.60;;;12.73;;
69594;SDS011;56800;52.142;5.364;2022-11-15T09:03:21;28.40;;;13.75;;
69594;SDS011;56800;52.142;5.364;2022-11-15T09:05:48;30.38;;;14.13;;
69594;SDS011;56800;52.142;5.364;2022-11-15T09:08:14;21.13;;;12.52;;
69594;SDS011;56800;52.142;5.364;2022-11-15T09:11:03;26.20;;;12.38;;
69594;SDS011;56800;52.142;5.364;2022-11-15T09:13:30;30.57;;;13.40;;
69594;SDS011;56800;52.142;5.364;2022-11-15T09:15:58;24.27;;;11.75;;
69594;SDS011;56800;52.142;5.364;2022-11-15T09:18:25;21.58;;;12.32;;
69594;SDS011;56800;52.142;5.364;2022-11-15T09:20:56;22.00;;;11.77;;
69594;SDS011;56800;52.142;5.364;2022-11-15T09:23:24;20.65;;;11.48;;
69594;SDS011;56800;52.142;5.364;2022-11-15T09:25:51;20.53;;;11.40;;
69594;SDS011;56800;52.142;5.364;2022-11-15T09:28:19;19.52;;;11.75;;
69594;SDS011;56800;52.142;5.364;2022-11-15T09:30:45;18.52;;;11.10;;
69594;SDS011;56800;52.142;5.364;2022-11-15T09:33:12;20.08;;;11.07;;
69594;SDS011;56800;52.142;5.364;2022-11-15T09:35:39;21.80;;;10.88;;
69594;SDS011;56800;52.142;5.364;2022-11-15T09:38:06;20.30;;;10.90;;
69594;SDS011;56800;52.142;5.364;2022-11-15T09:40:35;19.23;;;10.18;;
69594;SDS011;56800;52.142;5.364;2022-11-15T09:51:28;16.37;;;8.73;;
69594;SDS011;56800;52.142;5.364;2022-11-15T09:56:55;14.80;;;7.72;;
69594;SDS011;56800;52.142;5.364;2022-11-15T09:59:35;12.52;;;6.05;;
69594;SDS011;56800;52.142;5.364;2022-11-15T10:04:52;13.17;;;7.07;;
69594;SDS011;56800;52.142;5.364;2022-11-15T10:10:14;15.88;;;6.35;;
69594;SDS011;56800;52.142;5.364;2022-11-15T10:13:01;15.10;;;5.93;;
69594;SDS011;56800;52.142;5.364;2022-11-15T10:15:28;9.85;;;5.93;;
69594;SDS011;56800;52.142;5.364;2022-11-15T10:20:49;10.38;;;5.72;;
69594;SDS011;56800;52.142;5.364;2022-11-15T10:23:20;7.93;;;4.93;;
69594;SDS011;56800;52.142;5.364;2022-11-15T10:25:52;9.38;;;4.75;;
69594;SDS011;56800;52.142;5.364;2022-11-15T10:28:22;9.32;;;4.68;;
69594;SDS011;56800;52.142;5.364;2022-11-15T10:30:54;10.60;;;5.40;;
69594;SDS011;56800;52.142;5.364;2022-11-15T10:36:14;11.07;;;4.25;;
69594;SDS011;56800;52.142;5.364;2022-11-15T10:41:20;10.63;;;4.35;;
69594;SDS011;56800;52.142;5.364;2022-11-15T10:44:07;7.67;;;3.27;;
69594;SDS011;56800;52.142;5.364;2022-11-15T10:46:49;7.57;;;3.20;;
69594;SDS011;56800;52.142;5.364;2022-11-15T10:49:32;8.13;;;4.00;;
69594;SDS011;56800;52.142;5.364;2022-11-15T10:52:16;9.75;;;3.25;;
69594;SDS011;56800;52.142;5.364;2022-11-15T10:54:53;7.15;;;3.42;;
69594;SDS011;56800;52.142;5.364;2022-11-15T10:57:30;7.53;;;3.10;;
69594;SDS011;56800;52.142;5.364;2022-11-15T11:10:51;6.90;;;2.87;;
69594;SDS011;56800;52.142;5.364;2022-11-15T11:13:29;6.10;;;2.70;;
69594;SDS011;56800;52.142;5.364;2022-11-15T11:21:26;6.65;;;2.95;;
69594;SDS011;56800;52.142;5.364;2022-11-15T11:24:28;7.23;;;2.87;;
69594;SDS011;56800;52.142;5.364;2022-11-15T11:30:17;5.30;;;2.83;;
69594;SDS011;56800;52.142;5.364;2022-11-15T11:38:50;6.23;;;2.80;;
69594;SDS011;56800;52.142;5.364;2022-11-15T11:41:34;5.93;;;3.00;;
69594;SDS011;56800;52.142;5.364;2022-11-15T11:44:16;7.55;;;3.03;;
69594;SDS011;56800;52.142;5.364;2022-11-15T11:49:18;4.97;;;2.15;;
69594;SDS011;56800;52.142;5.364;2022-11-15T11:51:51;6.73;;;2.60;;
69594;SDS011;56800;52.142;5.364;2022-11-15T11:54:31;5.45;;;2.20;;
69594;SDS011;56800;52.142;5.364;2022-11-15T11:57:28;4.63;;;2.30;;
69594;SDS011;56800;52.142;5.364;2022-11-15T12:00:22;7.78;;;2.20;;
69594;SDS011;56800;52.142;5.364;2022-11-15T12:03:02;8.13;;;2.50;;
69594;SDS011;56800;52.142;5.364;2022-11-15T12:05:54;7.73;;;2.10;;
69594;SDS011;56800;52.142;5.364;2022-11-15T12:08:32;4.82;;;1.60;;
69594;SDS011;56800;52.142;5.364;2022-11-15T12:11:11;9.25;;;1.73;;
69594;SDS011;56800;52.142;5.364;2022-11-15T12:13:58;7.25;;;1.60;;
69594;SDS011;56800;52.142;5.364;2022-11-15T12:16:28;7.78;;;1.80;;
69594;SDS011;56800;52.142;5.364;2022-11-15T12:18:57;7.57;;;1.70;;
69594;SDS011;56800;52.142;5.364;2022-11-15T12:27:01;8.05;;;1.63;;
69594;SDS011;56800;52.142;5.364;2022-11-15T12:29:54;4.50;;;1.52;;
69594;SDS011;56800;52.142;5.364;2022-11-15T12:32:26;6.20;;;1.27;;
69594;SDS011;56800;52.142;5.364;2022-11-15T12:34:53;7.70;;;1.65;;
69594;SDS011;56800;52.142;5.364;2022-11-15T12:38:03;6.78;;;1.40;;
69594;SDS011;56800;52.142;5.364;2022-11-15T12:40:31;4.32;;;1.45;;
69594;SDS011;56800;52.142;5.364;2022-11-15T12:43:00;6.80;;;1.73;;
69594;SDS011;56800;52.142;5.364;2022-11-15T12:45:32;6.70;;;1.53;;
69594;SDS011;56800;52.142;5.364;2022-11-15T12:56:08;10.30;;;1.50;;
69594;SDS011;56800;52.142;5.364;2022-11-15T12:58:42;5.67;;;1.53;;
69594;SDS011;56800;52.142;5.364;2022-11-15T13:04:07;6.35;;;1.48;;
69594;SDS011;56800;52.142;5.364;2022-11-15T13:12:03;5.33;;;1.97;;
69594;SDS011;56800;52.142;5.364;2022-11-15T13:14:54;6.35;;;1.65;;
69594;SDS011;56800;52.142;5.364;2022-11-15T13:17:45;5.30;;;1.50;;
69594;SDS011;56800;52.142;5.364;2022-11-15T13:22:43;6.25;;;1.50;;
69594;SDS011;56800;52.142;5.364;2022-11-15T13:33:35;7.80;;;1.60;;
69594;SDS011;56800;52.142;5.364;2022-11-15T13:41:30;8.70;;;1.25;;
69594;SDS011;56800;52.142;5.364;2022-11-15T13:43:59;10.05;;;2.38;;
69594;SDS011;56800;52.142;5.364;2022-11-15T13:46:28;4.53;;;1.88;;
69594;SDS011;56800;52.142;5.364;2022-11-15T13:48:57;5.50;;;1.48;;
69594;SDS011;56800;52.142;5.364;2022-11-15T13:51:36;7.50;;;1.90;;
69594;SDS011;56800;52.142;5.364;2022-11-15T13:56:44;5.55;;;1.60;;
69594;SDS011;56800;52.142;5.364;2022-11-15T13:59:14;8.18;;;1.85;;
69594;SDS011;56800;52.142;5.364;2022-11-15T14:01:49;7.88;;;1.70;;
69594;SDS011;56800;52.142;5.364;2022-11-15T14:04:18;6.27;;;1.67;;
69594;SDS011;56800;52.142;5.364;2022-11-15T14:06:49;5.03;;;1.60;;
69594;SDS011;56800;52.142;5.364;2022-11-15T14:12:30;5.03;;;1.60;;
69594;SDS011;56800;52.142;5.364;2022-11-15T14:14:59;5.97;;;1.67;;
69594;SDS011;56800;52.142;5.364;2022-11-15T14:19:54;4.22;;;1.63;;
69594;SDS011;56800;52.142;5.364;2022-11-15T14:22:24;9.88;;;1.83;;
69594;SDS011;56800;52.142;5.364;2022-11-15T14:25:13;7.38;;;1.70;;
69594;SDS011;56800;52.142;5.364;2022-11-15T14:28:07;7.50;;;1.75;;
69594;SDS011;56800;52.142;5.364;2022-11-15T14:30:38;6.70;;;1.90;;
69594;SDS011;56800;52.142;5.364;2022-11-15T14:33:19;7.10;;;1.83;;
69594;SDS011;56800;52.142;5.364;2022-11-15T14:35:51;7.25;;;1.50;;
69594;SDS011;56800;52.142;5.364;2022-11-15T14:38:18;7.63;;;1.60;;
69594;SDS011;56800;52.142;5.364;2022-11-15T14:40:45;6.20;;;1.60;;
69594;SDS011;56800;52.142;5.364;2022-11-15T14:43:12;5.53;;;2.13;;
69594;SDS011;56800;52.142;5.364;2022-11-15T14:45:39;8.32;;;1.83;;
69594;SDS011;56800;52.142;5.364;2022-11-15T14:48:06;8.20;;;1.83;;
69594;SDS011;56800;52.142;5.364;2022-11-15T14:50:33;10.32;;;2.05;;
69594;SDS011;56800;52.142;5.364;2022-11-15T14:53:01;4.93;;;1.40;;
69594;SDS011;56800;52.142;5.364;2022-11-15T14:55:32;4.80;;;1.50;;
69594;SDS011;56800;52.142;5.364;2022-11-15T14:58:02;9.05;;;1.58;;
69594;SDS011;56800;52.142;5.364;2022-11-15T15:00:30;4.53;;;1.52;;
69594;SDS011;56800;52.142;5.364;2022-11-15T15:03:00;8.48;;;1.63;;
69594;SDS011;56800;52.142;5.364;2022-11-15T15:05:35;5.07;;;1.45;;
69594;SDS011;56800;52.142;5.364;2022-11-15T15:08:03;7.97;;;1.50;;
69594;SDS011;56800;52.142;5.364;2022-11-15T15:10:32;8.27;;;1.95;;
69594;SDS011;56800;52.142;5.364;2022-11-15T15:13:10;7.13;;;1.60;;
69594;SDS011;56800;52.142;5.364;2022-11-15T15:15:50;5.53;;;1.55;;
69594;SDS011;56800;52.142;5.364;2022-11-15T15:18:18;9.32;;;1.75;;
69594;SDS011;56800;52.142;5.364;2022-11-15T15:20:47;6.27;;;1.33;;
69594;SDS011;56800;52.142;5.364;2022-11-15T15:23:20;6.28;;;1.40;;
69594;SDS011;56800;52.142;5.364;2022-11-15T15:25:48;5.50;;;1.80;;
69594;SDS011;56800;52.142;5.364;2022-11-15T15:28:15;5.38;;;1.50;;
69594;SDS011;56800;52.142;5.364;2022-11-15T15:30:42;7.43;;;1.90;;
69594;SDS011;56800;52.142;5.364;2022-11-15T15:33:09;5.53;;;1.40;;
69594;SDS011;56800;52.142;5.364;2022-11-15T15:35:36;4.22;;;1.50;;
69594;SDS011;56800;52.142;5.364;2022-11-15T15:38:02;5.20;;;1.70;;
69594;SDS011;56800;52.142;5.364;2022-11-15T15:40:31;5.28;;;1.40;;
69594;SDS011;56800;52.142;5.364;2022-11-15T15:42:59;5.88;;;1.60;;
69594;SDS011;56800;52.142;5.364;2022-11-15T15:45:26;5.53;;;1.50;;
69594;SDS011;56800;52.142;5.364;2022-11-15T15:47:54;8.07;;;1.55;;
69594;SDS011;56800;52.142;5.364;2022-11-15T15:50:22;8.10;;;1.80;;
69594;SDS011;56800;52.142;5.364;2022-11-15T15:52:50;5.10;;;1.50;;
69594;SDS011;56800;52.142;5.364;2022-11-15T15:55:18;3.92;;;1.67;;
69594;SDS011;56800;52.142;5.364;2022-11-15T15:57:45;14.10;;;1.53;;
69594;SDS011;56800;52.142;5.364;2022-11-15T16:00:12;2.97;;;1.20;;
69594;SDS011;56800;52.142;5.364;2022-11-15T16:02:39;4.70;;;1.30;;
69594;SDS011;56800;52.142;5.364;2022-11-15T16:05:07;3.08;;;1.13;;
69594;SDS011;56800;52.142;5.364;2022-11-15T16:07:34;5.55;;;1.50;;
69594;SDS011;56800;52.142;5.364;2022-11-15T16:10:02;6.73;;;1.40;;
69594;SDS011;56800;52.142;5.364;2022-11-15T16:12:42;5.53;;;1.50;;
69594;SDS011;56800;52.142;5.364;2022-11-15T16:15:08;6.35;;;1.60;;
69594;SDS011;56800;52.142;5.364;2022-11-15T16:17:37;7.05;;;1.60;;
69594;SDS011;56800;52.142;5.364;2022-11-15T16:20:08;5.30;;;1.33;;
69594;SDS011;56800;52.142;5.364;2022-11-15T16:23:02;4.50;;;1.73;;
69594;SDS011;56800;52.142;5.364;2022-11-15T16:25:37;5.38;;;1.50;;
69594;SDS011;56800;52.142;5.364;2022-11-15T16:28:04;6.53;;;1.77;;
69594;SDS011;56800;52.142;5.364;2022-11-15T16:30:30;6.70;;;1.52;;
69594;SDS011;56800;52.142;5.364;2022-11-15T16:32:57;5.65;;;1.40;;
69594;SDS011;56800;52.142;5.364;2022-11-15T16:35:24;8.37;;;1.60;;
69594;SDS011;56800;52.142;5.364;2022-11-15T16:37:50;5.13;;;1.35;;
69594;SDS011;56800;52.142;5.364;2022-11-15T16:40:20;5.18;;;1.77;;
69594;SDS011;56800;52.142;5.364;2022-11-15T16:42:49;4.97;;;1.70;;
69594;SDS011;56800;52.142;5.364;2022-11-15T16:45:15;6.03;;;1.67;;
69594;SDS011;56800;52.142;5.364;2022-11-15T16:47:42;10.83;;;1.83;;
69594;SDS011;56800;52.142;5.364;2022-11-15T16:50:26;5.70;;;1.38;;
69594;SDS011;56800;52.142;5.364;2022-11-15T16:52:55;6.60;;;1.60;;
69594;SDS011;56800;52.142;5.364;2022-11-15T16:55:24;5.07;;;1.38;;
69594;SDS011;56800;52.142;5.364;2022-11-15T16:57:53;6.15;;;1.67;;
69594;SDS011;56800;52.142;5.364;2022-11-15T17:00:21;5.60;;;1.80;;
69594;SDS011;56800;52.142;5.364;2022-11-15T17:02:48;5.45;;;2.22;;